Time;durP1;ratioP1;P1;durP2;ratioP2;P2;SDS_P1;SDS_P2;PMS_P1;PMS_P2;Temp;Humidity;BMP_temperature;BMP_pressure;BME280_temperature;BME280_humidity;BME280_pressure;Samples;Min_cycle;Max_cycle;Signal;HPM_P1;HPM_P2
2023/06/22 00:02:19;;;;;;;34.58;18.88;;;;;;;;;;6198587;23;20004;-96
2023/06/22 00:05:10;;;;;;;32.70;18.33;;;;;;;;;;6248060;23;20008;-95
2023/06/22 00:07:37;;;;;;;27.60;17.33;;;;;;;;;;6199921;23;20012;-96
2023/06/22 00:10:24;;;;;;;36.38;18.83;;;;;;;;;;6225427;23;20032;-95
2023/06/22 00:12:51;;;;;;;35.45;18.20;;;;;;;;;;6195357;23;20032;-95
2023/06/22 00:15:18;;;;;;;37.33;18.85;;;;;;;;;;6194599;23;20012;-95
2023/06/22 00:17:45;;;;;;;46.75;20.75;;;;;;;;;;6195526;23;20428;-94
2023/06/22 00:20:12;;;;;;;43.00;21.02;;;;;;;;;;6220757;23;20004;-94
2023/06/22 00:22:40;;;;;;;37.25;20.33;;;;;;;;;;6194877;23;20091;-95
2023/06/22 00:25:08;;;;;;;37.85;20.33;;;;;;;;;;6195857;23;20075;-96
2023/06/22 00:27:34;;;;;;;36.30;19.15;;;;;;;;;;6195398;23;20019;-96
2023/06/22 00:30:00;;;;;;;38.00;20.75;;;;;;;;;;6191348;23;20404;-96
2023/06/22 00:32:27;;;;;;;33.47;18.13;;;;;;;;;;6217687;23;20027;-96
2023/06/22 00:34:53;;;;;;;38.42;20.63;;;;;;;;;;6192651;23;20477;-96
2023/06/22 00:37:19;;;;;;;33.40;19.02;;;;;;;;;;6192502;23;20066;-95
2023/06/22 00:39:45;;;;;;;38.95;18.83;;;;;;;;;;6187737;23;20012;-96
2023/06/22 00:42:15;;;;;;;32.20;17.40;;;;;;;;;;6217318;22;20006;-96
2023/06/22 00:44:50;;;;;;;42.83;18.55;;;;;;;;;;6191773;23;20027;-96
2023/06/22 00:47:19;;;;;;;39.63;18.92;;;;;;;;;;6192792;23;20039;-96
2023/06/22 00:49:54;;;;;;;36.63;19.00;;;;;;;;;;6217796;23;20270;-96
2023/06/22 00:52:27;;;;;;;34.05;18.23;;;;;;;;;;6192758;23;20016;-96
2023/06/22 00:54:53;;;;;;;36.15;18.08;;;;;;;;;;6217933;23;20004;-96
2023/06/22 00:57:25;;;;;;;40.05;19.00;;;;;;;;;;6191347;23;20024;-94
2023/06/22 00:59:52;;;;;;;42.88;20.88;;;;;;;;;;6217717;23;20057;-95
2023/06/22 01:02:18;;;;;;;41.20;21.40;;;;;;;;;;6191807;23;20008;-94
2023/06/22 01:04:44;;;;;;;39.15;19.10;;;;;;;;;;6193638;23;20330;-95
2023/06/22 01:07:13;;;;;;;35.20;18.75;;;;;;;;;;6217376;23;20432;-96
2023/06/22 01:09:48;;;;;;;39.55;18.52;;;;;;;;;;6219527;23;20067;-96
2023/06/22 01:12:16;;;;;;;35.40;18.63;;;;;;;;;;6220295;23;20019;-94
2023/06/22 01:14:44;;;;;;;31.33;17.33;;;;;;;;;;6219727;23;20047;-95
2023/06/22 01:17:12;;;;;;;32.92;18.15;;;;;;;;;;6218684;23;20078;-95
2023/06/22 01:19:55;;;;;;;35.67;18.38;;;;;;;;;;6221564;23;20323;-96
2023/06/22 01:22:26;;;;;;;34.42;17.83;;;;;;;;;;6249671;23;19996;-95
2023/06/22 01:24:52;;;;;;;38.70;17.75;;;;;;;;;;6221215;23;20004;-96
2023/06/22 01:27:41;;;;;;;40.00;20.15;;;;;;;;;;6223145;23;20043;-96
2023/06/22 01:30:10;;;;;;;34.38;20.02;;;;;;;;;;6223584;23;20051;-94
2023/06/22 01:32:43;;;;;;;47.13;21.73;;;;;;;;;;6197941;23;20039;-96
2023/06/22 01:35:16;;;;;;;45.60;25.20;;;;;;;;;;6221556;23;20441;-95
2023/06/22 01:37:43;;;;;;;49.65;24.00;;;;;;;;;;6221351;23;20019;-96
2023/06/22 01:40:29;;;;;;;46.00;24.52;;;;;;;;;;6219381;23;20154;-95
2023/06/22 01:43:09;;;;;;;46.53;27.15;;;;;;;;;;6218765;22;20097;-95
2023/06/22 01:45:36;;;;;;;52.20;26.75;;;;;;;;;;6222983;23;20008;-94
2023/06/22 01:48:03;;;;;;;48.13;24.75;;;;;;;;;;6192211;23;20062;-94
2023/06/22 01:50:46;;;;;;;47.85;27.33;;;;;;;;;;6191651;23;20016;-95
2023/06/22 01:53:22;;;;;;;47.65;25.80;;;;;;;;;;6218766;23;20012;-94
2023/06/22 01:55:52;;;;;;;44.90;25.67;;;;;;;;;;6194256;23;20099;-95
2023/06/22 01:58:30;;;;;;;45.90;23.98;;;;;;;;;;6192797;23;20015;-96
2023/06/22 02:01:03;;;;;;;52.00;25.75;;;;;;;;;;6218348;23;20012;-95
2023/06/22 02:03:32;;;;;;;48.38;25.75;;;;;;;;;;6218844;23;20461;-96
2023/06/22 02:06:09;;;;;;;57.28;29.15;;;;;;;;;;6219742;23;20008;-95
2023/06/22 02:08:42;;;;;;;54.85;27.90;;;;;;;;;;6246926;23;20018;-96
2023/06/22 02:11:10;;;;;;;52.53;27.60;;;;;;;;;;6218248;23;20012;-96
2023/06/22 02:13:42;;;;;;;54.53;26.85;;;;;;;;;;6218080;23;20012;-96
2023/06/22 02:16:16;;;;;;;51.45;27.88;;;;;;;;;;6219121;23;20012;-95
2023/06/22 02:19:09;;;;;;;65.20;27.60;;;;;;;;;;6219033;23;20075;-95
2023/06/22 02:25:00;;;;;;;59.17;27.00;;;;;;;;;;6239703;23;20460;-93
2023/06/22 02:27:33;;;;;;;51.00;25.75;;;;;;;;;;6220827;23;20162;-94
2023/06/22 02:30:03;;;;;;;53.95;27.95;;;;;;;;;;6191323;23;20012;-95
2023/06/22 02:32:41;;;;;;;55.28;27.60;;;;;;;;;;6243489;23;20070;-95
2023/06/22 02:35:08;;;;;;;54.42;28.42;;;;;;;;;;6192708;23;20016;-96
2023/06/22 02:37:38;;;;;;;51.83;28.73;;;;;;;;;;6192198;23;20035;-96
2023/06/22 02:40:08;;;;;;;53.58;28.83;;;;;;;;;;6214611;23;20004;-96
2023/06/22 02:42:45;;;;;;;55.78;28.10;;;;;;;;;;6217378;23;20046;-93
2023/06/22 02:48:05;;;;;;;55.38;28.55;;;;;;;;;;6102471;23;20105;-95
2023/06/22 02:50:44;;;;;;;62.38;29.92;;;;;;;;;;6204388;23;20037;-96
2023/06/22 02:53:17;;;;;;;62.00;30.52;;;;;;;;;;6218279;23;20115;-94
2023/06/22 02:55:44;;;;;;;56.80;27.67;;;;;;;;;;6219431;23;20058;-94
2023/06/22 02:58:14;;;;;;;58.50;28.02;;;;;;;;;;6218267;23;20004;-95
2023/06/22 03:00:44;;;;;;;59.58;29.30;;;;;;;;;;6193245;23;20008;-95
2023/06/22 03:03:11;;;;;;;64.50;29.83;;;;;;;;;;6217459;23;20007;-96
2023/06/22 03:05:52;;;;;;;71.65;30.02;;;;;;;;;;6217389;23;20008;-95
2023/06/22 03:08:35;;;;;;;70.05;31.48;;;;;;;;;;6193925;23;20441;-95
2023/06/22 03:11:22;;;;;;;65.10;28.88;;;;;;;;;;6217144;23;20035;-95
2023/06/22 03:14:00;;;;;;;76.70;31.23;;;;;;;;;;6212238;23;20035;-95
2023/06/22 03:16:37;;;;;;;;;;;;;;;;;;;;;
2023/06/22 03:19:04;;;;;;;66.78;29.90;;;;;;;;;;6175023;23;20083;-94
2023/06/22 03:21:33;;;;;;;64.03;29.83;;;;;;;;;;6193504;23;20074;-94
2023/06/22 03:23:59;;;;;;;63.45;30.35;;;;;;;;;;6195621;23;20236;-95
2023/06/22 03:26:29;;;;;;;63.70;29.83;;;;;;;;;;6193743;23;20071;-94
2023/06/22 03:28:56;;;;;;;59.65;28.92;;;;;;;;;;6218979;23;20015;-95
2023/06/22 03:31:22;;;;;;;62.38;28.88;;;;;;;;;;6194044;23;20442;-95
2023/06/22 03:33:52;;;;;;;61.35;29.52;;;;;;;;;;6194210;23;20027;-95
2023/06/22 03:36:20;;;;;;;65.03;29.80;;;;;;;;;;6194910;23;20015;-95
2023/06/22 03:39:07;;;;;;;67.65;30.83;;;;;;;;;;6219549;23;20000;-95
2023/06/22 03:41:38;;;;;;;64.18;30.33;;;;;;;;;;6195518;23;20069;-95
2023/06/22 03:44:12;;;;;;;71.22;31.33;;;;;;;;;;6194799;22;20027;-95
2023/06/22 03:46:42;;;;;;;65.68;33.15;;;;;;;;;;6197135;23;20012;-96
2023/06/22 03:49:11;;;;;;;75.20;32.30;;;;;;;;;;6219655;23;20011;-95
2023/06/22 03:51:39;;;;;;;68.35;30.80;;;;;;;;;;6218331;23;20099;-95
2023/06/22 03:56:59;;;;;;;66.40;31.60;;;;;;;;;;6201674;23;20018;-95
2023/06/22 03:59:29;;;;;;;72.43;30.88;;;;;;;;;;6194540;23;20008;-96
2023/06/22 04:01:56;;;;;;;77.68;33.83;;;;;;;;;;6194239;23;20060;-95
2023/06/22 04:04:41;;;;;;;65.10;32.92;;;;;;;;;;6220612;23;20004;-96
2023/06/22 04:07:14;;;;;;;69.45;34.47;;;;;;;;;;6220015;23;20033;-96
2023/06/22 04:09:41;;;;;;;70.57;34.15;;;;;;;;;;6218130;23;20094;-94
2023/06/22 04:12:19;;;;;;;70.43;33.47;;;;;;;;;;6220916;23;20020;-94
2023/06/22 04:14:49;;;;;;;78.35;33.38;;;;;;;;;;6217952;23;20026;-96
2023/06/22 04:17:19;;;;;;;72.35;34.65;;;;;;;;;;6193842;23;20039;-95
2023/06/22 04:19:45;;;;;;;66.13;32.70;;;;;;;;;;6194366;23;20012;-96
2023/06/22 04:22:12;;;;;;;63.55;33.92;;;;;;;;;;6220219;23;20008;-94
2023/06/22 04:24:38;;;;;;;71.90;33.63;;;;;;;;;;6218391;23;20328;-95
2023/06/22 04:27:49;;;;;;;74.57;34.63;;;;;;;;;;6218855;23;20004;-95
2023/06/22 04:30:19;;;;;;;80.90;37.13;;;;;;;;;;6068086;23;20476;-95
2023/06/22 04:33:09;;;;;;;77.18;36.50;;;;;;;;;;6069299;23;20297;-94
2023/06/22 04:35:33;;;;;;;70.88;35.72;;;;;;;;;;6182357;23;20056;-94
2023/06/22 04:38:05;;;;;;;76.50;36.80;;;;;;;;;;6188943;23;20107;-94
2023/06/22 04:40:32;;;;;;;69.40;34.15;;;;;;;;;;6215438;23;20001;-94
2023/06/22 04:43:07;;;;;;;80.57;39.97;;;;;;;;;;6222688;22;20047;-94
2023/06/22 04:45:37;;;;;;;74.97;36.35;;;;;;;;;;6195879;23;20342;-95
2023/06/22 04:48:09;;;;;;;70.20;36.92;;;;;;;;;;6222293;23;20004;-95
2023/06/22 04:50:50;;;;;;;78.55;37.30;;;;;;;;;;6195363;23;20036;-94
2023/06/22 04:53:19;;;;;;;75.28;37.28;;;;;;;;;;6222602;23;20011;-95
2023/06/22 04:55:49;;;;;;;64.35;35.50;;;;;;;;;;6221998;23;20055;-95
2023/06/22 04:58:28;;;;;;;75.15;37.78;;;;;;;;;;6220939;23;20012;-95
2023/06/22 05:01:08;;;;;;;69.65;36.83;;;;;;;;;;6195395;23;20012;-94
2023/06/22 05:03:44;;;;;;;67.28;34.95;;;;;;;;;;6203145;23;20067;-94
2023/06/22 05:06:14;;;;;;;65.38;34.53;;;;;;;;;;6226282;23;20097;-92
2023/06/22 05:08:40;;;;;;;60.30;31.65;;;;;;;;;;6199371;23;20038;-91
2023/06/22 05:11:09;;;;;;;54.88;29.92;;;;;;;;;;6217004;23;20031;-93
2023/06/22 05:13:35;;;;;;;55.22;30.30;;;;;;;;;;6196657;23;20074;-93
2023/06/22 05:16:05;;;;;;;47.83;27.70;;;;;;;;;;6193053;23;20012;-93
2023/06/22 05:18:32;;;;;;;42.58;26.77;;;;;;;;;;6217478;23;20008;-92
2023/06/22 05:20:59;;;;;;;44.58;26.23;;;;;;;;;;6216202;23;20007;-90
2023/06/22 05:23:26;;;;;;;47.22;27.35;;;;;;;;;;6190431;23;20244;-90
2023/06/22 05:25:52;;;;;;;49.22;27.50;;;;;;;;;;6190558;23;20082;-90
2023/06/22 05:28:22;;;;;;;39.83;24.95;;;;;;;;;;6215316;23;20384;-90
2023/06/22 05:30:48;;;;;;;42.70;25.50;;;;;;;;;;6214093;23;20383;-90
2023/06/22 05:33:14;;;;;;;39.15;23.88;;;;;;;;;;6190541;23;20012;-90
2023/06/22 05:35:41;;;;;;;41.45;23.67;;;;;;;;;;6241703;23;20516;-90
2023/06/22 05:38:14;;;;;;;37.65;25.00;;;;;;;;;;6189445;23;20018;-89
2023/06/22 05:40:40;;;;;;;38.30;23.30;;;;;;;;;;6214986;23;20337;-90
2023/06/22 05:43:09;;;;;;;45.03;24.75;;;;;;;;;;6192045;22;20089;-90
2023/06/22 05:45:42;;;;;;;38.33;23.25;;;;;;;;;;6190451;22;20032;-89
2023/06/22 05:48:08;;;;;;;34.17;20.48;;;;;;;;;;6217008;23;20011;-89
2023/06/22 05:50:34;;;;;;;32.25;21.75;;;;;;;;;;6193298;23;20012;-89
2023/06/22 05:53:03;;;;;;;34.60;22.33;;;;;;;;;;6219790;23;20004;-91
2023/06/22 05:55:29;;;;;;;38.05;23.10;;;;;;;;;;6220376;23;20004;-89
2023/06/22 05:57:58;;;;;;;37.90;22.15;;;;;;;;;;6193422;23;20019;-89
2023/06/22 06:00:25;;;;;;;34.72;20.80;;;;;;;;;;6195179;23;20012;-90
2023/06/22 06:02:51;;;;;;;35.00;20.63;;;;;;;;;;6195254;23;20442;-90
2023/06/22 06:05:18;;;;;;;28.95;20.60;;;;;;;;;;6220833;23;20054;-90
2023/06/22 06:07:45;;;;;;;30.48;19.83;;;;;;;;;;6222802;23;20004;-89
2023/06/22 06:10:12;;;;;;;37.35;22.00;;;;;;;;;;6220546;23;20062;-91
2023/06/22 06:12:38;;;;;;;33.80;21.55;;;;;;;;;;6222065;23;20000;-90
2023/06/22 06:15:05;;;;;;;33.20;20.33;;;;;;;;;;6197542;23;20004;-90
2023/06/22 06:17:34;;;;;;;31.20;19.90;;;;;;;;;;6194960;23;20489;-90
2023/06/22 06:20:00;;;;;;;34.40;19.95;;;;;;;;;;6219265;23;20369;-90
2023/06/22 06:22:27;;;;;;;27.58;18.60;;;;;;;;;;6193594;23;20046;-90
2023/06/22 06:24:53;;;;;;;27.95;18.05;;;;;;;;;;6192853;23;20009;-91
2023/06/22 06:27:21;;;;;;;26.77;19.48;;;;;;;;;;6193620;23;20016;-91
2023/06/22 06:29:58;;;;;;;29.02;17.92;;;;;;;;;;6196929;23;20520;-91
2023/06/22 06:32:24;;;;;;;27.60;17.65;;;;;;;;;;6216857;23;20015;-91
2023/06/22 06:34:51;;;;;;;30.35;17.95;;;;;;;;;;6191959;23;20015;-91
2023/06/22 06:37:18;;;;;;;28.23;16.95;;;;;;;;;;6243297;23;20004;-91
2023/06/22 06:39:47;;;;;;;23.08;15.60;;;;;;;;;;6191130;23;20008;-90
2023/06/22 06:42:14;;;;;;;25.23;17.00;;;;;;;;;;6191758;23;20127;-91
2023/06/22 06:44:47;;;;;;;30.45;16.48;;;;;;;;;;6179601;22;20082;-90
2023/06/22 06:47:13;;;;;;;21.75;14.65;;;;;;;;;;6210453;23;20005;-90
2023/06/22 06:49:39;;;;;;;23.17;14.85;;;;;;;;;;6161983;23;20342;-90
2023/06/22 06:52:06;;;;;;;25.60;15.82;;;;;;;;;;6210739;23;20016;-91
2023/06/22 06:54:32;;;;;;;24.58;13.85;;;;;;;;;;6160367;23;20448;-90
2023/06/22 06:57:04;;;;;;;20.95;13.88;;;;;;;;;;6161903;23;20426;-90
2023/06/22 06:59:30;;;;;;;20.02;13.48;;;;;;;;;;6162269;23;20062;-91
2023/06/22 07:01:56;;;;;;;22.00;14.00;;;;;;;;;;6162561;23;20028;-91
2023/06/22 07:04:32;;;;;;;22.90;14.65;;;;;;;;;;6162006;23;20008;-91
2023/06/22 07:07:00;;;;;;;21.58;13.18;;;;;;;;;;6212353;23;20634;-90
2023/06/22 07:09:26;;;;;;;21.58;13.55;;;;;;;;;;6160647;23;20009;-90
2023/06/22 07:11:52;;;;;;;20.50;13.02;;;;;;;;;;6209825;23;20032;-90
2023/06/22 07:14:18;;;;;;;19.85;13.48;;;;;;;;;;6161236;23;20017;-91
2023/06/22 07:16:45;;;;;;;22.15;13.93;;;;;;;;;;6211768;23;20005;-91
2023/06/22 07:19:15;;;;;;;20.63;13.43;;;;;;;;;;6163192;23;20004;-91
2023/06/22 07:21:45;;;;;;;20.70;14.75;;;;;;;;;;6212323;23;20014;-91
2023/06/22 07:24:11;;;;;;;21.85;13.85;;;;;;;;;;6211969;23;20391;-91
2023/06/22 07:26:37;;;;;;;21.33;13.77;;;;;;;;;;6161588;23;20027;-91
2023/06/22 07:29:04;;;;;;;18.67;13.63;;;;;;;;;;6159808;23;20013;-90
2023/06/22 07:31:30;;;;;;;21.80;12.10;;;;;;;;;;6212194;23;20351;-91
2023/06/22 07:33:57;;;;;;;23.77;13.35;;;;;;;;;;6162218;23;20009;-91
2023/06/22 07:36:23;;;;;;;20.73;12.35;;;;;;;;;;6161551;23;20012;-91
2023/06/22 07:38:49;;;;;;;15.75;11.27;;;;;;;;;;6161762;23;20012;-91
2023/06/22 07:41:15;;;;;;;18.65;11.82;;;;;;;;;;6209270;23;20020;-91
2023/06/22 07:43:49;;;;;;;15.88;10.45;;;;;;;;;;6213658;22;20087;-91
2023/06/22 07:46:16;;;;;;;16.75;11.02;;;;;;;;;;6217721;23;20020;-91
2023/06/22 07:48:43;;;;;;;14.25;8.90;;;;;;;;;;6215661;23;20461;-91
2023/06/22 07:51:14;;;;;;;16.33;9.75;;;;;;;;;;6191924;23;20012;-92
2023/06/22 07:53:44;;;;;;;16.98;11.00;;;;;;;;;;6216038;23;20008;-90
2023/06/22 07:56:11;;;;;;;14.52;9.27;;;;;;;;;;6192012;23;20016;-90
2023/06/22 07:58:37;;;;;;;13.02;8.75;;;;;;;;;;6217387;23;20000;-90
2023/06/22 08:01:04;;;;;;;12.77;9.43;;;;;;;;;;6218002;23;20031;-90
2023/06/22 08:03:30;;;;;;;14.48;9.05;;;;;;;;;;6217222;23;20027;-91
2023/06/22 08:05:57;;;;;;;11.63;8.00;;;;;;;;;;6245698;23;20135;-91
2023/06/22 08:08:34;;;;;;;12.60;9.05;;;;;;;;;;6193375;23;20027;-91
2023/06/22 08:11:01;;;;;;;15.02;8.75;;;;;;;;;;6216860;23;20019;-91
2023/06/22 08:13:30;;;;;;;11.32;7.03;;;;;;;;;;6218407;23;20008;-92
2023/06/22 08:15:57;;;;;;;8.32;5.47;;;;;;;;;;6194368;23;20019;-91
2023/06/22 08:18:26;;;;;;;11.35;7.30;;;;;;;;;;6218272;23;20006;-90
2023/06/22 08:20:52;;;;;;;17.65;8.10;;;;;;;;;;6193523;23;20031;-91
2023/06/22 08:23:19;;;;;;;11.13;6.88;;;;;;;;;;6217565;23;20011;-91
2023/06/22 08:25:56;;;;;;;9.38;7.43;;;;;;;;;;6193166;23;20471;-90
2023/06/22 08:28:25;;;;;;;10.45;6.40;;;;;;;;;;6219673;23;20005;-91
2023/06/22 08:30:51;;;;;;;8.80;5.20;;;;;;;;;;6193018;23;20008;-91
2023/06/22 08:36:06;;;;;;;9.00;6.35;;;;;;;;;;6200310;23;20094;-91
2023/06/22 08:38:34;;;;;;;8.27;6.18;;;;;;;;;;6219352;23;20008;-91
2023/06/22 08:41:00;;;;;;;9.25;5.07;;;;;;;;;;6191095;23;20012;-91
2023/06/22 08:43:37;;;;;;;;;;;;;;;;;;;;;
2023/06/22 08:46:03;;;;;;;11.35;6.35;;;;;;;;;;6245004;22;20098;-90
2023/06/22 08:48:29;;;;;;;11.68;6.45;;;;;;;;;;6193419;23;20016;-92
2023/06/22 08:50:58;;;;;;;13.20;8.35;;;;;;;;;;6222214;23;20035;-91
2023/06/22 08:53:34;;;;;;;11.60;7.50;;;;;;;;;;6254548;23;20050;-92
2023/06/22 08:59:00;;;;;;;9.88;5.47;;;;;;;;;;6236467;23;20063;-91
2023/06/22 09:01:38;;;;;;;8.93;6.25;;;;;;;;;;6233196;23;20067;-92
2023/06/22 09:04:07;;;;;;;11.98;7.32;;;;;;;;;;6198781;23;20369;-91
2023/06/22 09:07:03;;;;;;;11.52;7.47;;;;;;;;;;6203974;23;19999;-91
2023/06/22 09:10:10;;;;;;;;;;;;;;;;;;;;;
2023/06/22 09:12:40;;;;;;;10.90;7.55;;;;;;;;;;6256908;23;19988;-91
2023/06/22 09:15:16;;;;;;;12.60;8.35;;;;;;;;;;6239836;23;20016;-90
2023/06/22 09:17:42;;;;;;;15.90;6.50;;;;;;;;;;6234577;23;20020;-90
2023/06/22 09:20:10;;;;;;;10.25;6.53;;;;;;;;;;6197774;23;20035;-91
2023/06/22 09:22:38;;;;;;;10.45;6.60;;;;;;;;;;6219357;23;20077;-90
2023/06/22 09:25:11;;;;;;;9.50;5.93;;;;;;;;;;6221248;23;20004;-89
2023/06/22 09:27:45;;;;;;;9.57;6.93;;;;;;;;;;6247309;23;20301;-90
2023/06/22 09:30:15;;;;;;;11.07;6.18;;;;;;;;;;6197857;23;20038;-90
2023/06/22 09:32:45;;;;;;;10.52;6.38;;;;;;;;;;6195947;23;20008;-91
2023/06/22 09:35:13;;;;;;;12.32;6.18;;;;;;;;;;6196797;23;20008;-91
2023/06/22 09:37:40;;;;;;;12.30;6.22;;;;;;;;;;6222008;23;20023;-90
2023/06/22 09:43:14;;;;;;;9.77;6.85;;;;;;;;;;6199484;23;20043;-90
2023/06/22 09:45:41;;;;;;;10.80;5.75;;;;;;;;;;6223328;22;20016;-91
2023/06/22 09:50:56;;;;;;;13.52;7.25;;;;;;;;;;6254815;23;20035;-91
2023/06/22 09:53:22;;;;;;;7.90;6.18;;;;;;;;;;6219697;23;20004;-90
2023/06/22 09:56:04;;;;;;;;;;;;;;;;;;;;;
2023/06/22 09:58:34;;;;;;;12.18;6.88;;;;;;;;;;6251043;23;20016;-91
2023/06/22 10:01:03;;;;;;;8.93;6.78;;;;;;;;;;6222066;23;20056;-91
2023/06/22 10:03:31;;;;;;;7.80;5.55;;;;;;;;;;6222753;23;20421;-91
2023/06/22 10:05:57;;;;;;;8.95;6.20;;;;;;;;;;6199476;23;20012;-90
2023/06/22 10:08:25;;;;;;;8.20;5.57;;;;;;;;;;6222021;23;20399;-91
2023/06/22 10:10:54;;;;;;;8.68;6.47;;;;;;;;;;6195806;23;20283;-91
2023/06/22 10:13:20;;;;;;;6.47;5.10;;;;;;;;;;6196145;23;20012;-91
2023/06/22 10:16:10;;;;;;;10.40;6.90;;;;;;;;;;6218336;23;20307;-92
2023/06/22 10:19:02;;;;;;;10.82;6.32;;;;;;;;;;6201926;23;20004;-90
2023/06/22 10:21:29;;;;;;;9.43;6.22;;;;;;;;;;6219408;23;20008;-89
2023/06/22 10:23:56;;;;;;;7.82;5.88;;;;;;;;;;6198123;23;20019;-90
2023/06/22 10:26:36;;;;;;;9.27;6.32;;;;;;;;;;6224105;23;20059;-91
2023/06/22 10:29:04;;;;;;;8.63;6.30;;;;;;;;;;6222651;23;20015;-91
2023/06/22 10:31:31;;;;;;;8.07;6.05;;;;;;;;;;6199436;23;20019;-90
2023/06/22 10:34:30;;;;;;;12.65;6.45;;;;;;;;;;6224224;23;20009;-91
2023/06/22 10:36:50;;;;;;;8.75;6.00;;;;;;;;;;6247145;23;20142;-92
2023/06/22 10:39:16;;;;;;;8.73;5.97;;;;;;;;;;6199696;23;20012;-90
2023/06/22 10:41:42;;;;;;;8.88;5.68;;;;;;;;;;6223205;23;20250;-90
2023/06/22 10:44:08;;;;;;;10.60;5.78;;;;;;;;;;6223037;22;20000;-91
2023/06/22 10:46:34;;;;;;;13.18;6.72;;;;;;;;;;6199280;23;20050;-90
2023/06/22 10:49:01;;;;;;;7.68;6.30;;;;;;;;;;6196658;23;20020;-89
2023/06/22 10:51:28;;;;;;;8.32;6.03;;;;;;;;;;6220451;23;20043;-89
2023/06/22 10:53:54;;;;;;;8.20;5.72;;;;;;;;;;6220357;23;20497;-90
2023/06/22 10:56:20;;;;;;;9.52;6.82;;;;;;;;;;6218261;23;20004;-89
2023/06/22 10:58:46;;;;;;;8.85;6.63;;;;;;;;;;6191266;23;20035;-89
2023/06/22 11:01:13;;;;;;;8.70;6.20;;;;;;;;;;6193725;23;20313;-89
2023/06/22 11:03:40;;;;;;;7.55;6.22;;;;;;;;;;6244427;23;20035;-90
2023/06/22 11:06:10;;;;;;;9.90;6.07;;;;;;;;;;6196826;23;20008;-89
2023/06/22 11:08:36;;;;;;;8.75;5.35;;;;;;;;;;6218559;23;20087;-89
2023/06/22 11:11:02;;;;;;;8.60;5.70;;;;;;;;;;6192261;23;20481;-89
2023/06/22 11:13:29;;;;;;;10.30;6.13;;;;;;;;;;6193088;23;20016;-89
2023/06/22 11:15:55;;;;;;;9.57;5.93;;;;;;;;;;6194660;23;20012;-89
2023/06/22 11:18:23;;;;;;;7.60;5.65;;;;;;;;;;6218815;23;20057;-90
2023/06/22 11:20:52;;;;;;;10.00;5.53;;;;;;;;;;6221233;23;20008;-90
2023/06/22 11:23:19;;;;;;;6.90;5.30;;;;;;;;;;6198752;23;20004;-89
2023/06/22 11:25:48;;;;;;;8.75;6.47;;;;;;;;;;6188929;23;20008;-90
2023/06/22 11:28:15;;;;;;;8.88;5.93;;;;;;;;;;6197451;23;20376;-90
2023/06/22 11:30:47;;;;;;;8.77;5.50;;;;;;;;;;6190019;23;20012;-90
2023/06/22 11:33:13;;;;;;;13.73;5.95;;;;;;;;;;6192722;23;20094;-90
2023/06/22 11:35:43;;;;;;;9.95;6.38;;;;;;;;;;6202717;23;20095;-89
2023/06/22 11:38:10;;;;;;;8.73;5.30;;;;;;;;;;6195590;23;20463;-90
2023/06/22 11:40:36;;;;;;;9.13;5.55;;;;;;;;;;6190448;23;20023;-89
2023/06/22 11:43:06;;;;;;;16.90;6.18;;;;;;;;;;6217195;23;20504;-89
2023/06/22 11:45:32;;;;;;;6.90;5.07;;;;;;;;;;6192996;22;20024;-91
2023/06/22 11:47:58;;;;;;;7.05;5.25;;;;;;;;;;6191280;23;20029;-88
2023/06/22 11:50:29;;;;;;;8.05;5.07;;;;;;;;;;6190787;23;20012;-90
2023/06/22 11:52:58;;;;;;;6.75;5.18;;;;;;;;;;6194143;23;20009;-91
2023/06/22 11:58:11;;;;;;;6.95;4.88;;;;;;;;;;6197450;23;20043;-91
2023/06/22 12:00:38;;;;;;;11.43;4.55;;;;;;;;;;6190257;23;20016;-90
2023/06/22 12:03:04;;;;;;;6.65;4.80;;;;;;;;;;6193298;23;20078;-92
2023/06/22 12:05:30;;;;;;;8.88;5.05;;;;;;;;;;6193249;23;20255;-90
2023/06/22 12:07:58;;;;;;;9.48;3.97;;;;;;;;;;6193594;23;20004;-90
2023/06/22 12:10:29;;;;;;;6.47;5.07;;;;;;;;;;6193857;23;20004;-90
2023/06/22 12:12:57;;;;;;;6.45;4.38;;;;;;;;;;6193542;23;20095;-91
2023/06/22 12:15:24;;;;;;;7.97;5.22;;;;;;;;;;6217472;23;20378;-90
2023/06/22 12:17:51;;;;;;;7.90;5.07;;;;;;;;;;6218637;23;20058;-90
2023/06/22 12:20:18;;;;;;;7.35;5.00;;;;;;;;;;6194054;23;20012;-89
2023/06/22 12:22:48;;;;;;;9.18;5.45;;;;;;;;;;6216947;23;20050;-91
2023/06/22 12:25:24;;;;;;;6.15;5.05;;;;;;;;;;6217866;23;20341;-90
2023/06/22 12:27:50;;;;;;;8.77;4.85;;;;;;;;;;6216984;23;20081;-89
2023/06/22 12:30:24;;;;;;;8.27;5.40;;;;;;;;;;6193219;23;20740;-89
2023/06/22 12:32:51;;;;;;;10.50;5.63;;;;;;;;;;6192337;23;20018;-88
2023/06/22 12:35:24;;;;;;;7.10;4.80;;;;;;;;;;6192072;23;20497;-89
2023/06/22 12:37:50;;;;;;;8.00;4.63;;;;;;;;;;6192251;23;20434;-90
2023/06/22 12:40:19;;;;;;;11.57;5.80;;;;;;;;;;6190229;23;20342;-89
2023/06/22 12:42:50;;;;;;;9.63;5.40;;;;;;;;;;6191665;23;20015;-89
2023/06/22 12:45:16;;;;;;;7.45;5.03;;;;;;;;;;6189308;22;20079;-90
2023/06/22 12:47:53;;;;;;;;;;;;;;;;;;;;;
2023/06/22 12:50:19;;;;;;;8.70;5.60;;;;;;;;;;6212649;23;20094;-89
2023/06/22 12:52:46;;;;;;;7.57;4.82;;;;;;;;;;6186712;23;20009;-88
2023/06/22 12:55:12;;;;;;;6.38;4.70;;;;;;;;;;6187561;23;20334;-89
2023/06/22 12:57:39;;;;;;;6.57;5.00;;;;;;;;;;6186722;23;20092;-90
2023/06/22 13:00:10;;;;;;;9.18;5.07;;;;;;;;;;6187789;23;20009;-89
2023/06/22 13:02:36;;;;;;;7.32;4.72;;;;;;;;;;6189227;23;20464;-89
2023/06/22 13:05:05;;;;;;;7.93;4.75;;;;;;;;;;6189574;23;20012;-88
2023/06/22 13:07:32;;;;;;;7.05;5.10;;;;;;;;;;6212040;23;20043;-89
2023/06/22 13:09:58;;;;;;;7.35;4.43;;;;;;;;;;6188855;23;20069;-89
2023/06/22 13:12:24;;;;;;;10.35;4.78;;;;;;;;;;6212487;23;20016;-90
2023/06/22 13:14:56;;;;;;;7.18;4.60;;;;;;;;;;6214622;23;20265;-89
2023/06/22 13:17:24;;;;;;;6.65;4.15;;;;;;;;;;6190148;23;20020;-89
2023/06/22 13:19:59;;;;;;;7.40;4.32;;;;;;;;;;6189562;23;20005;-90
2023/06/22 13:22:29;;;;;;;;;;;;;;;;;;6189337;23;20068;-88
2023/06/22 13:25:05;;;;;;;11.80;3.47;;;;;;;;;;6212243;23;19911;-90
2023/06/22 13:27:34;;;;;;;7.03;3.88;;;;;;;;;;6212299;23;20082;-90
2023/06/22 13:30:00;;;;;;;6.07;3.88;;;;;;;;;;6214275;23;20435;-90
2023/06/22 13:32:30;;;;;;;5.47;4.00;;;;;;;;;;6185601;23;20063;-89
2023/06/22 13:34:56;;;;;;;7.78;4.43;;;;;;;;;;6187653;23;20383;-93
2023/06/22 13:37:22;;;;;;;6.00;4.20;;;;;;;;;;6187724;23;20024;-90
2023/06/22 13:39:48;;;;;;;6.18;3.95;;;;;;;;;;6212164;23;20116;-89
2023/06/22 13:42:15;;;;;;;5.60;3.90;;;;;;;;;;6212779;23;20032;-90
2023/06/22 13:44:42;;;;;;;6.68;4.10;;;;;;;;;;6217246;22;20000;-90
2023/06/22 13:47:09;;;;;;;5.82;3.00;;;;;;;;;;6217597;23;20004;-90
2023/06/22 13:49:35;;;;;;;5.45;3.42;;;;;;;;;;6217455;23;20375;-90
2023/06/22 13:52:06;;;;;;;8.02;4.07;;;;;;;;;;6243696;23;20000;-90
2023/06/22 13:54:32;;;;;;;5.70;3.50;;;;;;;;;;6192802;23;20020;-90
2023/06/22 13:56:59;;;;;;;9.60;3.63;;;;;;;;;;6191090;23;20016;-89
2023/06/22 13:59:26;;;;;;;4.22;3.20;;;;;;;;;;6242826;23;20086;-90
2023/06/22 14:01:52;;;;;;;7.50;3.00;;;;;;;;;;6191465;23;20063;-90
2023/06/22 14:04:18;;;;;;;3.90;2.67;;;;;;;;;;6192127;23;20039;-90
2023/06/22 14:06:45;;;;;;;7.55;2.85;;;;;;;;;;6216962;23;20011;-91
2023/06/22 14:09:12;;;;;;;4.65;2.70;;;;;;;;;;6192415;23;20016;-89
2023/06/22 14:11:38;;;;;;;5.03;2.60;;;;;;;;;;6192980;23;20034;-89
2023/06/22 14:14:04;;;;;;;5.55;2.85;;;;;;;;;;6189039;23;20016;-91
2023/06/22 14:17:03;;;;;;;4.70;2.58;;;;;;;;;;6194065;23;20018;-90
2023/06/22 14:19:37;;;;;;;5.00;2.63;;;;;;;;;;6091481;23;20034;-90
2023/06/22 14:22:07;;;;;;;3.70;2.58;;;;;;;;;;6195084;23;20079;-90
2023/06/22 14:24:33;;;;;;;3.97;2.45;;;;;;;;;;6217573;23;20004;-90
2023/06/22 14:27:02;;;;;;;2.78;2.05;;;;;;;;;;6195066;23;20012;-90
2023/06/22 14:29:31;;;;;;;2.65;2.08;;;;;;;;;;6194177;23;20090;-90
2023/06/22 14:34:43;;;;;;;6.20;2.00;;;;;;;;;;6223551;23;20053;-90
2023/06/22 14:37:12;;;;;;;3.90;2.30;;;;;;;;;;6193486;23;20009;-90
2023/06/22 14:39:51;;;;;;;3.88;2.08;;;;;;;;;;6216384;23;20000;-90
2023/06/22 14:42:17;;;;;;;3.00;2.00;;;;;;;;;;6193306;23;20008;-90
2023/06/22 14:44:43;;;;;;;7.68;2.95;;;;;;;;;;6192339;22;20095;-90
2023/06/22 14:47:11;;;;;;;4.38;1.90;;;;;;;;;;6219790;23;20012;-90
2023/06/22 14:49:37;;;;;;;7.68;4.43;;;;;;;;;;6193967;23;20405;-90
2023/06/22 14:52:10;;;;;;;4.63;2.00;;;;;;;;;;6218651;23;20004;-89
2023/06/22 14:54:37;;;;;;;3.25;1.85;;;;;;;;;;6194355;23;20070;-89
2023/06/22 14:57:22;;;;;;;6.50;1.92;;;;;;;;;;6219416;23;20031;-90
2023/06/22 14:59:50;;;;;;;4.00;2.28;;;;;;;;;;6198067;23;20080;-91
2023/06/22 15:02:17;;;;;;;4.90;2.03;;;;;;;;;;6219653;23;20004;-90
2023/06/22 15:04:44;;;;;;;5.80;2.90;;;;;;;;;;6219537;23;20031;-89
2023/06/22 15:07:16;;;;;;;4.18;1.98;;;;;;;;;;6219350;23;20009;-90
2023/06/22 15:09:46;;;;;;;5.47;2.40;;;;;;;;;;6196193;23;20461;-89
2023/06/22 15:12:13;;;;;;;2.88;1.95;;;;;;;;;;6195085;23;20008;-90
2023/06/22 15:14:42;;;;;;;9.65;2.05;;;;;;;;;;6223454;23;20012;-90
2023/06/22 15:17:09;;;;;;;6.53;1.98;;;;;;;;;;6200227;23;20007;-89